sensor_id;sensor_type;location;lat;lon;timestamp;P1;durP1;ratioP1;P2;durP2;ratioP2
23732;SDS011;12047;53.450;-2.286;2023-08-31T00:03:17;8.77;;;3.85;;
23732;SDS011;12047;53.450;-2.286;2023-08-31T00:08:19;7.35;;;3.45;;
23732;SDS011;12047;53.450;-2.286;2023-08-31T00:13:22;10.82;;;3.53;;
23732;SDS011;12047;53.450;-2.286;2023-08-31T00:18:23;8.27;;;3.40;;
23732;SDS011;12047;53.450;-2.286;2023-08-31T00:23:24;7.05;;;3.42;;
23732;SDS011;12047;53.450;-2.286;2023-08-31T00:28:24;9.98;;;3.15;;
23732;SDS011;12047;53.450;-2.286;2023-08-31T00:33:27;8.35;;;2.92;;
23732;SDS011;12047;53.450;-2.286;2023-08-31T00:38:27;7.50;;;3.28;;
23732;SDS011;12047;53.450;-2.286;2023-08-31T00:43:28;9.43;;;3.42;;
23732;SDS011;12047;53.450;-2.286;2023-08-31T00:48:29;9.10;;;3.10;;
23732;SDS011;12047;53.450;-2.286;2023-08-31T00:53:30;9.95;;;3.70;;
23732;SDS011;12047;53.450;-2.286;2023-08-31T00:58:30;8.25;;;3.83;;
23732;SDS011;12047;53.450;-2.286;2023-08-31T01:09:08;8.10;;;3.88;;
23732;SDS011;12047;53.450;-2.286;2023-08-31T01:14:19;11.88;;;4.00;;
23732;SDS011;12047;53.450;-2.286;2023-08-31T01:19:35;10.73;;;3.90;;
23732;SDS011;12047;53.450;-2.286;2023-08-31T01:24:43;8.98;;;3.90;;
23732;SDS011;12047;53.450;-2.286;2023-08-31T01:29:44;11.60;;;4.15;;
23732;SDS011;12047;53.450;-2.286;2023-08-31T01:34:45;9.85;;;4.40;;
23732;SDS011;12047;53.450;-2.286;2023-08-31T01:40:02;7.68;;;4.40;;
23732;SDS011;12047;53.450;-2.286;2023-08-31T01:45:13;10.68;;;5.03;;
23732;SDS011;12047;53.450;-2.286;2023-08-31T01:50:16;12.43;;;5.07;;
23732;SDS011;12047;53.450;-2.286;2023-08-31T01:55:16;9.93;;;5.30;;
23732;SDS011;12047;53.450;-2.286;2023-08-31T02:00:18;12.07;;;6.18;;
23732;SDS011;12047;53.450;-2.286;2023-08-31T02:05:19;9.32;;;5.45;;
23732;SDS011;12047;53.450;-2.286;2023-08-31T02:10:20;9.48;;;4.93;;
23732;SDS011;12047;53.450;-2.286;2023-08-31T02:15:20;11.05;;;6.03;;
23732;SDS011;12047;53.450;-2.286;2023-08-31T02:20:21;12.63;;;6.38;;
23732;SDS011;12047;53.450;-2.286;2023-08-31T02:25:21;12.43;;;6.68;;
23732;SDS011;12047;53.450;-2.286;2023-08-31T02:30:22;15.98;;;7.10;;
23732;SDS011;12047;53.450;-2.286;2023-08-31T02:35:22;14.75;;;7.40;;
23732;SDS011;12047;53.450;-2.286;2023-08-31T02:40:23;9.77;;;5.60;;
23732;SDS011;12047;53.450;-2.286;2023-08-31T02:45:23;9.43;;;5.05;;
23732;SDS011;12047;53.450;-2.286;2023-08-31T02:50:24;11.13;;;5.70;;
23732;SDS011;12047;53.450;-2.286;2023-08-31T02:55:24;10.13;;;5.70;;
23732;SDS011;12047;53.450;-2.286;2023-08-31T03:00:25;8.05;;;5.28;;
23732;SDS011;12047;53.450;-2.286;2023-08-31T03:05:26;8.68;;;5.68;;
23732;SDS011;12047;53.450;-2.286;2023-08-31T03:10:26;10.90;;;6.13;;
23732;SDS011;12047;53.450;-2.286;2023-08-31T03:15:27;11.15;;;6.15;;
23732;SDS011;12047;53.450;-2.286;2023-08-31T03:20:27;10.05;;;5.45;;
23732;SDS011;12047;53.450;-2.286;2023-08-31T03:25:28;9.30;;;5.65;;
23732;SDS011;12047;53.450;-2.286;2023-08-31T03:30:29;13.30;;;6.80;;
23732;SDS011;12047;53.450;-2.286;2023-08-31T03:35:31;9.73;;;4.90;;
23732;SDS011;12047;53.450;-2.286;2023-08-31T03:40:32;7.75;;;5.13;;
23732;SDS011;12047;53.450;-2.286;2023-08-31T03:45:32;8.00;;;5.60;;
23732;SDS011;12047;53.450;-2.286;2023-08-31T03:50:33;11.60;;;6.10;;
23732;SDS011;12047;53.450;-2.286;2023-08-31T03:55:35;9.57;;;5.47;;
23732;SDS011;12047;53.450;-2.286;2023-08-31T04:00:36;9.57;;;5.30;;
23732;SDS011;12047;53.450;-2.286;2023-08-31T04:05:37;14.40;;;6.43;;
23732;SDS011;12047;53.450;-2.286;2023-08-31T04:10:38;9.43;;;6.38;;
23732;SDS011;12047;53.450;-2.286;2023-08-31T04:15:38;11.27;;;6.13;;
23732;SDS011;12047;53.450;-2.286;2023-08-31T04:20:45;11.50;;;6.85;;
23732;SDS011;12047;53.450;-2.286;2023-08-31T04:25:48;12.05;;;6.95;;
23732;SDS011;12047;53.450;-2.286;2023-08-31T04:30:51;11.27;;;6.72;;
23732;SDS011;12047;53.450;-2.286;2023-08-31T04:35:52;10.55;;;6.78;;
23732;SDS011;12047;53.450;-2.286;2023-08-31T04:40:52;12.15;;;6.20;;
23732;SDS011;12047;53.450;-2.286;2023-08-31T04:45:53;12.40;;;6.30;;
23732;SDS011;12047;53.450;-2.286;2023-08-31T04:50:55;8.43;;;6.43;;
23732;SDS011;12047;53.450;-2.286;2023-08-31T04:55:57;10.60;;;6.78;;
23732;SDS011;12047;53.450;-2.286;2023-08-31T05:00:58;11.00;;;6.20;;
23732;SDS011;12047;53.450;-2.286;2023-08-31T05:05:59;12.18;;;7.50;;
23732;SDS011;12047;53.450;-2.286;2023-08-31T05:10:59;15.48;;;7.43;;
23732;SDS011;12047;53.450;-2.286;2023-08-31T05:16:00;8.57;;;5.50;;
23732;SDS011;12047;53.450;-2.286;2023-08-31T05:21:00;13.50;;;6.95;;
23732;SDS011;12047;53.450;-2.286;2023-08-31T05:26:02;11.93;;;5.05;;
23732;SDS011;12047;53.450;-2.286;2023-08-31T05:31:03;11.15;;;6.38;;
23732;SDS011;12047;53.450;-2.286;2023-08-31T05:36:03;13.55;;;7.47;;
23732;SDS011;12047;53.450;-2.286;2023-08-31T05:41:07;9.63;;;6.72;;
23732;SDS011;12047;53.450;-2.286;2023-08-31T05:46:08;11.75;;;6.93;;
23732;SDS011;12047;53.450;-2.286;2023-08-31T05:51:09;10.20;;;6.20;;
23732;SDS011;12047;53.450;-2.286;2023-08-31T05:56:09;9.77;;;4.90;;
23732;SDS011;12047;53.450;-2.286;2023-08-31T06:01:10;12.07;;;7.15;;
23732;SDS011;12047;53.450;-2.286;2023-08-31T06:06:10;15.35;;;7.82;;
23732;SDS011;12047;53.450;-2.286;2023-08-31T06:11:11;14.02;;;7.20;;
23732;SDS011;12047;53.450;-2.286;2023-08-31T06:16:13;13.77;;;7.95;;
23732;SDS011;12047;53.450;-2.286;2023-08-31T06:21:15;14.45;;;7.53;;
23732;SDS011;12047;53.450;-2.286;2023-08-31T06:26:15;17.60;;;7.72;;
23732;SDS011;12047;53.450;-2.286;2023-08-31T06:31:16;13.98;;;6.60;;
23732;SDS011;12047;53.450;-2.286;2023-08-31T06:36:18;14.80;;;7.22;;
23732;SDS011;12047;53.450;-2.286;2023-08-31T06:41:18;8.30;;;5.78;;
23732;SDS011;12047;53.450;-2.286;2023-08-31T06:46:19;12.50;;;5.80;;
23732;SDS011;12047;53.450;-2.286;2023-08-31T06:51:19;11.55;;;6.07;;
23732;SDS011;12047;53.450;-2.286;2023-08-31T06:56:19;11.40;;;5.72;;
23732;SDS011;12047;53.450;-2.286;2023-08-31T07:01:20;10.80;;;5.43;;
23732;SDS011;12047;53.450;-2.286;2023-08-31T07:06:20;11.88;;;5.45;;
23732;SDS011;12047;53.450;-2.286;2023-08-31T07:11:21;12.68;;;5.32;;
23732;SDS011;12047;53.450;-2.286;2023-08-31T07:16:22;11.20;;;5.30;;
23732;SDS011;12047;53.450;-2.286;2023-08-31T07:21:22;10.07;;;5.18;;
23732;SDS011;12047;53.450;-2.286;2023-08-31T07:26:22;11.60;;;4.40;;
23732;SDS011;12047;53.450;-2.286;2023-08-31T07:31:23;9.68;;;4.60;;
23732;SDS011;12047;53.450;-2.286;2023-08-31T07:36:24;8.48;;;4.05;;
23732;SDS011;12047;53.450;-2.286;2023-08-31T07:41:25;10.02;;;4.75;;
23732;SDS011;12047;53.450;-2.286;2023-08-31T07:46:25;11.40;;;4.70;;
23732;SDS011;12047;53.450;-2.286;2023-08-31T07:51:26;8.20;;;4.05;;
23732;SDS011;12047;53.450;-2.286;2023-08-31T07:56:26;9.07;;;4.35;;
23732;SDS011;12047;53.450;-2.286;2023-08-31T08:01:27;11.75;;;4.82;;
23732;SDS011;12047;53.450;-2.286;2023-08-31T08:06:27;7.30;;;4.35;;
23732;SDS011;12047;53.450;-2.286;2023-08-31T08:11:28;11.50;;;4.22;;
23732;SDS011;12047;53.450;-2.286;2023-08-31T08:16:28;7.67;;;3.97;;
23732;SDS011;12047;53.450;-2.286;2023-08-31T08:21:29;7.40;;;4.22;;
23732;SDS011;12047;53.450;-2.286;2023-08-31T08:26:30;14.57;;;4.55;;
23732;SDS011;12047;53.450;-2.286;2023-08-31T08:31:30;7.00;;;3.80;;
23732;SDS011;12047;53.450;-2.286;2023-08-31T08:36:31;10.00;;;4.05;;
23732;SDS011;12047;53.450;-2.286;2023-08-31T08:41:32;10.60;;;3.95;;
23732;SDS011;12047;53.450;-2.286;2023-08-31T08:46:33;13.85;;;4.00;;
23732;SDS011;12047;53.450;-2.286;2023-08-31T08:51:33;9.82;;;4.50;;
23732;SDS011;12047;53.450;-2.286;2023-08-31T08:56:34;10.18;;;4.60;;
23732;SDS011;12047;53.450;-2.286;2023-08-31T09:01:35;9.13;;;4.85;;
23732;SDS011;12047;53.450;-2.286;2023-08-31T09:06:36;12.02;;;4.40;;
23732;SDS011;12047;53.450;-2.286;2023-08-31T09:11:37;18.63;;;9.85;;
23732;SDS011;12047;53.450;-2.286;2023-08-31T09:16:37;11.60;;;4.25;;
23732;SDS011;12047;53.450;-2.286;2023-08-31T09:21:38;10.13;;;3.90;;
23732;SDS011;12047;53.450;-2.286;2023-08-31T09:26:44;8.90;;;3.30;;
23732;SDS011;12047;53.450;-2.286;2023-08-31T09:31:48;7.68;;;3.08;;
23732;SDS011;12047;53.450;-2.286;2023-08-31T09:36:49;7.15;;;2.70;;
23732;SDS011;12047;53.450;-2.286;2023-08-31T09:41:54;5.65;;;2.40;;
23732;SDS011;12047;53.450;-2.286;2023-08-31T09:46:55;9.25;;;2.33;;
23732;SDS011;12047;53.450;-2.286;2023-08-31T09:51:57;7.38;;;2.15;;
23732;SDS011;12047;53.450;-2.286;2023-08-31T09:57:03;6.25;;;2.42;;
23732;SDS011;12047;53.450;-2.286;2023-08-31T10:02:04;7.80;;;2.15;;
23732;SDS011;12047;53.450;-2.286;2023-08-31T10:07:06;5.65;;;2.20;;
23732;SDS011;12047;53.450;-2.286;2023-08-31T10:12:11;5.93;;;2.35;;
23732;SDS011;12047;53.450;-2.286;2023-08-31T10:17:12;5.88;;;2.10;;
23732;SDS011;12047;53.450;-2.286;2023-08-31T10:22:13;6.10;;;1.98;;
23732;SDS011;12047;53.450;-2.286;2023-08-31T10:27:19;5.07;;;2.20;;
23732;SDS011;12047;53.450;-2.286;2023-08-31T10:32:20;5.18;;;1.80;;
23732;SDS011;12047;53.450;-2.286;2023-08-31T10:37:21;3.72;;;1.40;;
23732;SDS011;12047;53.450;-2.286;2023-08-31T10:42:23;2.83;;;1.40;;
23732;SDS011;12047;53.450;-2.286;2023-08-31T10:47:35;3.63;;;1.55;;
23732;SDS011;12047;53.450;-2.286;2023-08-31T10:52:42;3.80;;;1.50;;
23732;SDS011;12047;53.450;-2.286;2023-08-31T10:57:44;3.85;;;1.30;;
23732;SDS011;12047;53.450;-2.286;2023-08-31T11:02:46;3.60;;;1.45;;
23732;SDS011;12047;53.450;-2.286;2023-08-31T11:07:50;4.78;;;1.40;;
23732;SDS011;12047;53.450;-2.286;2023-08-31T11:12:54;4.97;;;1.80;;
23732;SDS011;12047;53.450;-2.286;2023-08-31T11:17:57;5.60;;;1.70;;
23732;SDS011;12047;53.450;-2.286;2023-08-31T11:22:58;3.78;;;1.63;;
23732;SDS011;12047;53.450;-2.286;2023-08-31T11:27:59;3.55;;;1.80;;
23732;SDS011;12047;53.450;-2.286;2023-08-31T11:33:06;4.22;;;1.42;;
23732;SDS011;12047;53.450;-2.286;2023-08-31T11:38:08;5.18;;;1.70;;
23732;SDS011;12047;53.450;-2.286;2023-08-31T11:43:09;7.80;;;1.98;;
23732;SDS011;12047;53.450;-2.286;2023-08-31T11:48:09;3.50;;;1.50;;
23732;SDS011;12047;53.450;-2.286;2023-08-31T11:53:10;3.65;;;1.40;;
23732;SDS011;12047;53.450;-2.286;2023-08-31T11:58:12;4.70;;;1.30;;
23732;SDS011;12047;53.450;-2.286;2023-08-31T12:03:13;5.60;;;1.38;;
23732;SDS011;12047;53.450;-2.286;2023-08-31T12:08:13;6.53;;;1.73;;
23732;SDS011;12047;53.450;-2.286;2023-08-31T12:13:15;3.28;;;1.40;;
23732;SDS011;12047;53.450;-2.286;2023-08-31T12:18:16;7.47;;;1.58;;
23732;SDS011;12047;53.450;-2.286;2023-08-31T12:23:19;4.18;;;1.60;;
23732;SDS011;12047;53.450;-2.286;2023-08-31T12:28:22;3.90;;;1.70;;
23732;SDS011;12047;53.450;-2.286;2023-08-31T12:33:23;6.80;;;2.00;;
23732;SDS011;12047;53.450;-2.286;2023-08-31T12:38:24;4.45;;;1.98;;
23732;SDS011;12047;53.450;-2.286;2023-08-31T12:43:25;4.93;;;1.90;;
23732;SDS011;12047;53.450;-2.286;2023-08-31T12:48:28;7.30;;;2.42;;
23732;SDS011;12047;53.450;-2.286;2023-08-31T12:53:29;5.03;;;2.00;;
23732;SDS011;12047;53.450;-2.286;2023-08-31T12:58:29;3.88;;;1.70;;
23732;SDS011;12047;53.450;-2.286;2023-08-31T13:03:30;5.32;;;2.10;;
23732;SDS011;12047;53.450;-2.286;2023-08-31T13:08:30;3.53;;;1.75;;
23732;SDS011;12047;53.450;-2.286;2023-08-31T13:13:31;5.75;;;2.00;;
23732;SDS011;12047;53.450;-2.286;2023-08-31T13:18:32;3.92;;;2.30;;
23732;SDS011;12047;53.450;-2.286;2023-08-31T13:23:32;4.32;;;1.77;;
23732;SDS011;12047;53.450;-2.286;2023-08-31T13:28:33;3.65;;;1.90;;
23732;SDS011;12047;53.450;-2.286;2023-08-31T13:33:33;3.15;;;1.80;;
23732;SDS011;12047;53.450;-2.286;2023-08-31T13:38:34;5.85;;;1.83;;
23732;SDS011;12047;53.450;-2.286;2023-08-31T13:43:34;5.18;;;1.75;;
23732;SDS011;12047;53.450;-2.286;2023-08-31T13:48:35;4.95;;;2.30;;
23732;SDS011;12047;53.450;-2.286;2023-08-31T13:53:36;5.25;;;2.17;;
23732;SDS011;12047;53.450;-2.286;2023-08-31T13:58:36;4.20;;;2.28;;
23732;SDS011;12047;53.450;-2.286;2023-08-31T14:03:37;3.90;;;2.47;;
23732;SDS011;12047;53.450;-2.286;2023-08-31T14:08:37;6.45;;;2.75;;
23732;SDS011;12047;53.450;-2.286;2023-08-31T14:13:37;5.45;;;2.63;;
23732;SDS011;12047;53.450;-2.286;2023-08-31T14:18:38;8.83;;;3.07;;
23732;SDS011;12047;53.450;-2.286;2023-08-31T14:23:38;7.40;;;2.60;;
23732;SDS011;12047;53.450;-2.286;2023-08-31T14:28:39;6.95;;;2.97;;
23732;SDS011;12047;53.450;-2.286;2023-08-31T14:33:42;8.40;;;3.38;;
23732;SDS011;12047;53.450;-2.286;2023-08-31T14:38:42;6.03;;;3.00;;
23732;SDS011;12047;53.450;-2.286;2023-08-31T14:43:45;5.40;;;2.70;;
23732;SDS011;12047;53.450;-2.286;2023-08-31T14:48:45;5.30;;;2.70;;
23732;SDS011;12047;53.450;-2.286;2023-08-31T14:53:46;4.90;;;2.72;;
23732;SDS011;12047;53.450;-2.286;2023-08-31T14:58:46;9.43;;;2.92;;
23732;SDS011;12047;53.450;-2.286;2023-08-31T15:03:47;7.65;;;2.80;;
23732;SDS011;12047;53.450;-2.286;2023-08-31T15:08:47;5.40;;;2.50;;
23732;SDS011;12047;53.450;-2.286;2023-08-31T15:13:48;4.63;;;2.60;;
23732;SDS011;12047;53.450;-2.286;2023-08-31T15:18:48;7.40;;;2.95;;
23732;SDS011;12047;53.450;-2.286;2023-08-31T15:23:49;5.07;;;2.65;;
23732;SDS011;12047;53.450;-2.286;2023-08-31T15:28:50;7.53;;;3.03;;
23732;SDS011;12047;53.450;-2.286;2023-08-31T15:33:51;4.95;;;2.30;;
23732;SDS011;12047;53.450;-2.286;2023-08-31T15:38:52;6.00;;;1.70;;
23732;SDS011;12047;53.450;-2.286;2023-08-31T15:43:52;5.15;;;2.20;;
23732;SDS011;12047;53.450;-2.286;2023-08-31T15:48:53;3.45;;;1.98;;
23732;SDS011;12047;53.450;-2.286;2023-08-31T15:53:53;5.80;;;2.40;;
23732;SDS011;12047;53.450;-2.286;2023-08-31T15:58:54;5.97;;;2.40;;
23732;SDS011;12047;53.450;-2.286;2023-08-31T16:03:55;9.35;;;3.00;;
23732;SDS011;12047;53.450;-2.286;2023-08-31T16:08:55;7.47;;;3.00;;
23732;SDS011;12047;53.450;-2.286;2023-08-31T16:13:56;6.07;;;2.95;;
23732;SDS011;12047;53.450;-2.286;2023-08-31T16:18:58;6.32;;;2.80;;
23732;SDS011;12047;53.450;-2.286;2023-08-31T16:23:58;7.35;;;3.00;;
23732;SDS011;12047;53.450;-2.286;2023-08-31T16:28:59;5.00;;;2.33;;
23732;SDS011;12047;53.450;-2.286;2023-08-31T16:33:59;7.60;;;3.40;;
23732;SDS011;12047;53.450;-2.286;2023-08-31T16:39:00;5.72;;;2.65;;
23732;SDS011;12047;53.450;-2.286;2023-08-31T16:44:00;6.45;;;3.20;;
23732;SDS011;12047;53.450;-2.286;2023-08-31T16:49:01;7.93;;;3.58;;
23732;SDS011;12047;53.450;-2.286;2023-08-31T16:54:01;7.05;;;3.67;;
23732;SDS011;12047;53.450;-2.286;2023-08-31T16:59:03;9.32;;;3.83;;
23732;SDS011;12047;53.450;-2.286;2023-08-31T17:04:04;7.65;;;3.50;;
23732;SDS011;12047;53.450;-2.286;2023-08-31T17:09:05;8.88;;;4.00;;
23732;SDS011;12047;53.450;-2.286;2023-08-31T17:14:08;5.38;;;3.30;;
23732;SDS011;12047;53.450;-2.286;2023-08-31T17:19:09;7.13;;;3.30;;
23732;SDS011;12047;53.450;-2.286;2023-08-31T17:24:10;7.40;;;3.47;;
23732;SDS011;12047;53.450;-2.286;2023-08-31T17:29:11;7.50;;;3.05;;
23732;SDS011;12047;53.450;-2.286;2023-08-31T17:34:14;5.78;;;2.83;;
23732;SDS011;12047;53.450;-2.286;2023-08-31T17:39:17;5.45;;;2.35;;
23732;SDS011;12047;53.450;-2.286;2023-08-31T17:44:17;6.82;;;2.67;;
23732;SDS011;12047;53.450;-2.286;2023-08-31T17:49:18;6.47;;;3.35;;
23732;SDS011;12047;53.450;-2.286;2023-08-31T17:54:18;4.95;;;2.75;;
23732;SDS011;12047;53.450;-2.286;2023-08-31T17:59:19;7.20;;;2.97;;
23732;SDS011;12047;53.450;-2.286;2023-08-31T18:04:19;5.90;;;2.85;;
23732;SDS011;12047;53.450;-2.286;2023-08-31T18:09:19;8.00;;;3.00;;
23732;SDS011;12047;53.450;-2.286;2023-08-31T18:14:20;5.40;;;2.92;;
23732;SDS011;12047;53.450;-2.286;2023-08-31T18:19:20;5.85;;;3.30;;
23732;SDS011;12047;53.450;-2.286;2023-08-31T18:24:23;8.07;;;3.75;;
23732;SDS011;12047;53.450;-2.286;2023-08-31T18:29:23;9.77;;;4.07;;
23732;SDS011;12047;53.450;-2.286;2023-08-31T18:34:24;9.70;;;4.03;;
23732;SDS011;12047;53.450;-2.286;2023-08-31T18:39:25;11.53;;;3.60;;
23732;SDS011;12047;53.450;-2.286;2023-08-31T18:44:26;9.40;;;3.22;;
23732;SDS011;12047;53.450;-2.286;2023-08-31T18:49:26;4.10;;;2.50;;
23732;SDS011;12047;53.450;-2.286;2023-08-31T18:54:27;7.30;;;2.90;;
23732;SDS011;12047;53.450;-2.286;2023-08-31T18:59:27;6.85;;;2.50;;
23732;SDS011;12047;53.450;-2.286;2023-08-31T19:04:27;5.57;;;3.10;;
23732;SDS011;12047;53.450;-2.286;2023-08-31T19:09:28;4.72;;;2.83;;
23732;SDS011;12047;53.450;-2.286;2023-08-31T19:14:29;5.65;;;3.17;;
23732;SDS011;12047;53.450;-2.286;2023-08-31T19:19:29;4.00;;;2.60;;
23732;SDS011;12047;53.450;-2.286;2023-08-31T19:24:30;6.30;;;2.97;;
23732;SDS011;12047;53.450;-2.286;2023-08-31T19:29:31;3.55;;;2.47;;
23732;SDS011;12047;53.450;-2.286;2023-08-31T19:34:31;4.03;;;2.35;;
23732;SDS011;12047;53.450;-2.286;2023-08-31T19:39:35;4.75;;;2.90;;
23732;SDS011;12047;53.450;-2.286;2023-08-31T19:44:35;5.35;;;2.47;;
23732;SDS011;12047;53.450;-2.286;2023-08-31T19:49:36;5.97;;;3.15;;
23732;SDS011;12047;53.450;-2.286;2023-08-31T19:54:36;4.60;;;2.83;;
23732;SDS011;12047;53.450;-2.286;2023-08-31T19:59:37;4.70;;;2.70;;
23732;SDS011;12047;53.450;-2.286;2023-08-31T20:04:37;5.47;;;3.10;;
23732;SDS011;12047;53.450;-2.286;2023-08-31T20:09:38;4.85;;;2.83;;
23732;SDS011;12047;53.450;-2.286;2023-08-31T20:14:39;4.40;;;2.50;;
23732;SDS011;12047;53.450;-2.286;2023-08-31T20:19:39;3.20;;;2.33;;
23732;SDS011;12047;53.450;-2.286;2023-08-31T20:24:40;4.03;;;2.65;;
23732;SDS011;12047;53.450;-2.286;2023-08-31T20:29:40;4.53;;;2.60;;
23732;SDS011;12047;53.450;-2.286;2023-08-31T20:34:44;5.10;;;3.35;;
23732;SDS011;12047;53.450;-2.286;2023-08-31T20:39:46;7.20;;;3.28;;
23732;SDS011;12047;53.450;-2.286;2023-08-31T20:44:46;4.50;;;3.17;;
23732;SDS011;12047;53.450;-2.286;2023-08-31T20:49:47;4.75;;;2.90;;
23732;SDS011;12047;53.450;-2.286;2023-08-31T20:54:50;5.30;;;2.97;;
23732;SDS011;12047;53.450;-2.286;2023-08-31T20:59:54;6.93;;;3.75;;
23732;SDS011;12047;53.450;-2.286;2023-08-31T21:04:55;7.88;;;4.70;;
23732;SDS011;12047;53.450;-2.286;2023-08-31T21:09:58;8.65;;;5.25;;
23732;SDS011;12047;53.450;-2.286;2023-08-31T21:14:59;10.45;;;6.10;;
23732;SDS011;12047;53.450;-2.286;2023-08-31T21:20:01;7.95;;;6.53;;
23732;SDS011;12047;53.450;-2.286;2023-08-31T21:25:04;13.90;;;7.88;;
23732;SDS011;12047;53.450;-2.286;2023-08-31T21:30:05;13.45;;;7.93;;
23732;SDS011;12047;53.450;-2.286;2023-08-31T21:35:06;14.90;;;7.95;;
23732;SDS011;12047;53.450;-2.286;2023-08-31T21:40:08;12.38;;;8.15;;
23732;SDS011;12047;53.450;-2.286;2023-08-31T21:45:10;14.57;;;8.35;;
23732;SDS011;12047;53.450;-2.286;2023-08-31T21:50:11;13.25;;;9.18;;
23732;SDS011;12047;53.450;-2.286;2023-08-31T21:55:13;13.13;;;9.48;;
23732;SDS011;12047;53.450;-2.286;2023-08-31T22:00:14;14.65;;;9.77;;
23732;SDS011;12047;53.450;-2.286;2023-08-31T22:05:16;14.98;;;9.27;;
23732;SDS011;12047;53.450;-2.286;2023-08-31T22:10:17;14.55;;;10.25;;
23732;SDS011;12047;53.450;-2.286;2023-08-31T22:15:19;11.93;;;10.30;;
23732;SDS011;12047;53.450;-2.286;2023-08-31T22:20:24;14.68;;;11.02;;
23732;SDS011;12047;53.450;-2.286;2023-08-31T22:25:30;13.55;;;11.00;;
23732;SDS011;12047;53.450;-2.286;2023-08-31T22:30:30;14.13;;;10.93;;
23732;SDS011;12047;53.450;-2.286;2023-08-31T22:35:32;16.27;;;13.10;;
23732;SDS011;12047;53.450;-2.286;2023-08-31T22:40:33;13.25;;;11.07;;
23732;SDS011;12047;53.450;-2.286;2023-08-31T22:45:34;18.65;;;12.82;;
23732;SDS011;12047;53.450;-2.286;2023-08-31T22:50:34;14.77;;;12.43;;
23732;SDS011;12047;53.450;-2.286;2023-08-31T22:55:35;15.63;;;12.07;;
23732;SDS011;12047;53.450;-2.286;2023-08-31T23:00:35;16.50;;;11.77;;
23732;SDS011;12047;53.450;-2.286;2023-08-31T23:05:36;17.33;;;11.38;;
23732;SDS011;12047;53.450;-2.286;2023-08-31T23:10:36;13.35;;;11.32;;
23732;SDS011;12047;53.450;-2.286;2023-08-31T23:15:37;14.35;;;10.90;;
23732;SDS011;12047;53.450;-2.286;2023-08-31T23:20:41;14.20;;;11.40;;
23732;SDS011;12047;53.450;-2.286;2023-08-31T23:25:41;13.65;;;10.77;;
23732;SDS011;12047;53.450;-2.286;2023-08-31T23:30:42;11.68;;;10.13;;
23732;SDS011;12047;53.450;-2.286;2023-08-31T23:35:42;12.90;;;11.50;;
23732;SDS011;12047;53.450;-2.286;2023-08-31T23:40:46;12.65;;;11.35;;
23732;SDS011;12047;53.450;-2.286;2023-08-31T23:45:46;13.63;;;11.13;;
23732;SDS011;12047;53.450;-2.286;2023-08-31T23:50:46;12.68;;;10.52;;
23732;SDS011;12047;53.450;-2.286;2023-08-31T23:55:47;13.05;;;11.18;;
